createdAt,value
2023-04-03T00:00:35.283Z,99771.38
2023-04-03T00:03:38.819Z,99782.59
2023-04-03T00:06:41.852Z,99775.31
2023-04-03T00:09:44.816Z,99783.41
2023-04-03T00:12:49.178Z,99778.56
2023-04-03T00:15:52.732Z,99787.56
2023-04-03T00:18:56.182Z,99785.06
2023-04-03T00:21:59.441Z,99789.88
2023-04-03T00:25:02.424Z,99786.53
2023-04-03T00:28:06.374Z,99795.47
2023-04-03T00:31:09.481Z,99797.28
2023-04-03T00:34:12.719Z,99793.03
2023-04-03T00:37:15.828Z,99803.69
2023-04-03T00:40:19.256Z,99796.13
2023-04-03T00:43:24.880Z,99795.09
2023-04-03T00:46:28.140Z,99796.81
2023-04-03T00:49:31.394Z,99801.94
2023-04-03T00:52:34.660Z,99796.13
2023-04-03T00:55:38.510Z,99802.94
2023-04-03T00:58:51.560Z,99803.03
2023-04-03T01:01:58.727Z,99797.19
2023-04-03T01:05:02.302Z,99799.94
2023-04-03T01:08:05.672Z,99799.03
2023-04-03T01:11:10.189Z,99806.00
2023-04-03T01:14:13.336Z,99806.16
2023-04-03T01:17:31.900Z,99801.78
2023-04-03T01:20:37.892Z,99803.44
2023-04-03T01:23:57.036Z,99806.81
2023-04-03T01:27:00.887Z,99810.72
2023-04-03T01:30:05.772Z,99817.34
2023-04-03T01:33:08.689Z,99816.41
2023-04-03T01:36:21.735Z,99813.78
2023-04-03T01:39:24.972Z,99811.03
2023-04-03T01:42:28.531Z,99811.09
2023-04-03T01:45:32.199Z,99811.00
2023-04-03T01:48:35.852Z,99809.19
2023-04-03T01:51:39.182Z,99809.94
2023-04-03T01:54:42.484Z,99815.56
2023-04-03T01:57:45.642Z,99812.91
2023-04-03T02:00:49.482Z,99812.09
2023-04-03T02:03:52.770Z,99812.38
2023-04-03T02:06:55.989Z,99811.78
2023-04-03T02:09:59.252Z,99822.34
2023-04-03T02:13:02.365Z,99813.94
2023-04-03T02:16:12.815Z,99824.63
2023-04-03T02:19:16.193Z,99821.75
2023-04-03T02:22:19.503Z,99817.47
2023-04-03T02:25:22.948Z,99818.66
2023-04-03T02:28:27.300Z,99822.78
2023-04-03T02:31:31.800Z,99810.34
2023-04-03T02:34:37.018Z,99814.56
2023-04-03T02:37:40.755Z,99822.41
2023-04-03T02:40:44.990Z,99811.03
2023-04-03T02:43:49.554Z,99822.66
2023-04-03T02:46:52.585Z,99830.28
2023-04-03T02:49:55.926Z,99839.38
2023-04-03T02:52:58.972Z,99833.84
2023-04-03T02:56:01.981Z,99831.50
2023-04-03T02:59:06.136Z,99839.06
2023-04-03T03:02:10.049Z,99839.19
2023-04-03T03:05:13.019Z,99842.59
2023-04-03T03:08:16.532Z,99837.59
2023-04-03T03:11:20.005Z,99837.88
2023-04-03T03:14:23.930Z,99837.34
2023-04-03T03:17:26.951Z,99840.81
2023-04-03T03:20:31.128Z,99837.03
2023-04-03T03:23:34.505Z,99837.94
2023-04-03T03:26:37.992Z,99833.47
2023-04-03T03:29:41.180Z,99837.47
2023-04-03T03:32:44.600Z,99844.91
2023-04-03T03:35:47.944Z,99832.53
2023-04-03T03:38:51.296Z,99840.78
2023-04-03T03:41:54.603Z,99841.87
2023-04-03T03:44:58.001Z,99832.63
2023-04-03T03:48:01.555Z,99834.97
2023-04-03T03:51:05.171Z,99835.16
2023-04-03T03:54:09.190Z,99830.81
2023-04-03T03:57:12.964Z,99831.09
2023-04-03T04:00:17.238Z,99841.63
2023-04-03T04:03:22.285Z,99843.38
2023-04-03T04:06:25.712Z,99842.44
2023-04-03T04:09:30.494Z,99847.50
2023-04-03T04:12:33.695Z,99844.53
2023-04-03T04:15:37.644Z,99844.22
2023-04-03T04:18:42.247Z,99841.69
2023-04-03T04:21:45.667Z,99838.22
2023-04-03T04:24:48.797Z,99842.19
2023-04-03T04:27:52.864Z,99849.47
2023-04-03T04:30:56.157Z,99844.53
2023-04-03T04:34:01.865Z,99845.34
2023-04-03T04:37:05.098Z,99848.66
2023-04-03T04:40:09.167Z,99840.78
2023-04-03T04:43:15.429Z,99858.41
2023-04-03T04:46:19.813Z,99840.31
2023-04-03T04:49:23.284Z,99847.56
2023-04-03T04:52:26.882Z,99857.91
2023-04-03T04:55:30.259Z,99859.97
2023-04-03T04:58:33.807Z,99868.62
2023-04-03T05:01:38.334Z,99860.75
2023-04-03T05:04:42.680Z,99867.97
2023-04-03T05:07:47.961Z,99872.25
2023-04-03T05:10:55.990Z,99872.28
2023-04-03T05:14:00.415Z,99872.25
2023-04-03T05:17:04.925Z,99878.69
2023-04-03T05:20:09.712Z,99866.06
2023-04-03T05:23:14.438Z,99877.88
2023-04-03T05:26:17.776Z,99876.59
2023-04-03T05:29:25.459Z,99873.94
2023-04-03T05:32:28.807Z,99869.50
2023-04-03T05:35:33.784Z,99867.75
2023-04-03T05:38:39.266Z,99871.56
2023-04-03T05:41:44.110Z,99874.69
2023-04-03T05:44:49.902Z,99877.78
2023-04-03T05:47:54.641Z,99879.19
2023-04-03T05:50:57.821Z,99872.91
2023-04-03T05:54:10.309Z,99884.31
2023-04-03T05:57:13.493Z,99884.06
2023-04-03T06:00:18.466Z,99881.25
2023-04-03T06:03:23.870Z,99885.00
2023-04-03T06:07:03.887Z,99879.97
2023-04-03T06:10:09.987Z,99888.66
2023-04-03T06:13:14.853Z,99896.25
2023-04-03T06:16:18.619Z,99899.31
2023-04-03T06:19:22.245Z,99897.72
2023-04-03T06:22:27.617Z,99897.53
2023-04-03T06:25:30.730Z,99897.25
2023-04-03T06:28:34.173Z,99903.00
2023-04-03T06:31:40.816Z,99905.16
2023-04-03T06:34:44.108Z,99899.84
2023-04-03T06:37:47.024Z,99894.25
2023-04-03T06:40:50.455Z,99903.88
2023-04-03T06:43:53.683Z,99900.44
2023-04-03T06:46:57.204Z,99897.22
2023-04-03T06:50:00.200Z,99907.81
2023-04-03T06:53:03.563Z,99912.44
2023-04-03T06:56:06.851Z,99908.38
2023-04-03T06:59:10.912Z,99908.44
2023-04-03T07:02:14.645Z,99916.94
2023-04-03T07:05:17.959Z,99902.72
2023-04-03T07:08:21.370Z,99913.41
2023-04-03T07:11:24.574Z,99904.50
2023-04-03T07:14:27.549Z,99896.91
2023-04-03T07:17:30.845Z,99907.88
2023-04-03T07:20:33.930Z,99914.75
2023-04-03T07:23:37.429Z,99912.91
2023-04-03T07:26:40.520Z,99910.81
2023-04-03T07:29:43.977Z,99902.50
2023-04-03T07:32:47.191Z,99923.78
2023-04-03T07:35:51.228Z,99919.69
2023-04-03T07:38:54.126Z,99917.84
2023-04-03T07:41:57.420Z,99927.13
2023-04-03T07:45:01.937Z,99921.00
2023-04-03T07:48:05.562Z,99921.16
2023-04-03T07:51:09.384Z,99922.34
2023-04-03T07:54:12.658Z,99920.38
2023-04-03T07:57:15.960Z,99917.84
2023-04-03T08:00:20.770Z,99919.00
2023-04-03T08:03:24.284Z,99924.44
2023-04-03T08:06:41.950Z,99923.38
2023-04-03T08:09:48.896Z,99906.22
2023-04-03T08:12:53.256Z,99908.13
2023-04-03T08:15:58.302Z,99932.59
2023-04-03T08:19:15.131Z,99929.38
2023-04-03T08:22:22.187Z,99925.03
2023-04-03T08:25:31.113Z,99914.50
2023-04-03T08:28:34.830Z,99921.78
2023-04-03T08:31:37.837Z,99921.38
2023-04-03T08:34:41.211Z,99920.91
2023-04-03T08:37:44.174Z,99915.94
2023-04-03T08:40:47.380Z,99915.72
2023-04-03T08:43:58.863Z,99921.47
2023-04-03T08:47:16.538Z,99917.59
2023-04-03T08:50:23.175Z,99908.81
2023-04-03T08:53:29.678Z,99912.63
2023-04-03T08:56:34.950Z,99918.34
2023-04-03T08:59:39.634Z,99922.03
2023-04-03T09:02:48.199Z,99917.87
2023-04-03T09:06:18.498Z,99908.75
2023-04-03T09:09:37.823Z,99917.06
2023-04-03T09:12:44.368Z,99904.25
2023-04-03T09:15:47.473Z,99906.53
2023-04-03T09:19:01.810Z,99911.41
2023-04-03T09:22:13.863Z,99908.44
2023-04-03T09:25:22.937Z,99910.44
2023-04-03T09:28:26.716Z,99916.87
2023-04-03T09:31:41.828Z,99913.19
2023-04-03T09:34:45.835Z,99917.97
2023-04-03T09:37:52.701Z,99917.41
2023-04-03T09:41:19.037Z,99917.06
2023-04-03T09:44:45.256Z,99916.44
2023-04-03T09:47:48.534Z,99919.50
2023-04-03T09:50:51.840Z,99922.69
2023-04-03T09:53:55.071Z,99930.28
2023-04-03T09:57:05.334Z,99908.25
2023-04-03T10:00:41.377Z,99921.25
2023-04-03T10:03:47.768Z,99912.09
2023-04-03T10:06:53.597Z,99918.72
2023-04-03T10:09:58.864Z,99910.00
2023-04-03T10:13:16.423Z,99918.69
2023-04-03T10:16:30.377Z,99909.78
2023-04-03T10:19:59.689Z,99901.25
2023-04-03T10:23:12.359Z,99929.53
2023-04-03T10:26:25.957Z,99924.22
2023-04-03T10:29:44.382Z,99911.34
2023-04-03T10:33:02.312Z,99909.63
2023-04-03T10:36:26.925Z,99913.88
2023-04-03T10:39:51.296Z,99904.03
2023-04-03T10:43:00.620Z,99908.03
2023-04-03T10:46:07.644Z,99903.13
2023-04-03T10:49:21.789Z,99917.34
2023-04-03T10:52:28.567Z,99920.31
2023-04-03T10:55:37.334Z,99904.63
2023-04-03T10:58:42.942Z,99898.69
2023-04-03T11:01:49.651Z,99903.09
2023-04-03T11:04:56.530Z,99904.41
2023-04-03T11:08:04.190Z,99907.94
2023-04-03T11:11:10.900Z,99906.38
2023-04-03T11:14:35.830Z,99889.97
2023-04-03T11:17:45.474Z,99901.91
2023-04-03T11:21:00.567Z,99902.19
2023-04-03T11:24:08.753Z,99901.34
2023-04-03T11:27:23.824Z,99890.91
2023-04-03T11:30:31.452Z,99889.09
2023-04-03T11:34:11.871Z,99894.22
2023-04-03T11:37:24.472Z,99892.25
2023-04-03T11:40:31.949Z,99896.31
2023-04-03T11:43:35.589Z,99888.00
2023-04-03T11:46:57.902Z,99880.38
2023-04-03T11:50:06.693Z,99883.62
2023-04-03T11:53:13.072Z,99873.00
2023-04-03T11:56:25.183Z,99870.22
2023-04-03T11:59:38.810Z,99887.31
2023-04-03T12:02:53.626Z,99881.38
2023-04-03T12:06:18.154Z,99876.38
2023-04-03T12:09:37.003Z,99864.25
2023-04-03T12:12:42.094Z,99861.16
2023-04-03T12:15:54.913Z,99860.91
2023-04-03T12:19:05.963Z,99861.34
2023-04-03T12:22:12.230Z,99860.16
2023-04-03T12:25:50.914Z,99856.06
2023-04-03T12:28:55.025Z,99852.12
2023-04-03T12:32:24.664Z,99847.97
2023-04-03T12:35:36.342Z,99847.87
2023-04-03T12:38:54.020Z,99851.13
2023-04-03T12:42:22.433Z,99850.25
2023-04-03T12:45:27.464Z,99840.16
2023-04-03T12:48:33.424Z,99842.53
2023-04-03T12:51:44.221Z,99836.09
2023-04-03T12:58:27.305Z,99841.03
2023-04-03T13:01:30.839Z,99834.31
2023-04-03T13:04:34.409Z,99825.41
2023-04-03T13:07:40.124Z,99835.81
2023-04-03T13:11:12.296Z,99833.03
2023-04-03T13:14:18.502Z,99835.13
2023-04-03T13:17:22.413Z,99821.75
2023-04-03T13:20:31.443Z,99822.72
2023-04-03T13:23:37.753Z,99840.50
2023-04-03T13:26:41.787Z,99826.97
2023-04-03T13:29:45.006Z,99825.00
2023-04-03T13:32:48.321Z,99824.75
2023-04-03T13:35:59.258Z,99831.50
2023-04-03T13:39:16.697Z,99824.47
2023-04-03T13:42:32.488Z,99821.72
2023-04-03T13:45:37.446Z,99829.09
2023-04-03T13:48:52.673Z,99809.13
2023-04-03T13:52:06.382Z,99809.44
2023-04-03T13:55:26.510Z,99823.06
2023-04-03T13:58:32.508Z,99803.53
2023-04-03T14:01:46.799Z,99813.13
2023-04-03T14:05:01.130Z,99799.00
2023-04-03T14:08:04.193Z,99802.37
2023-04-03T14:11:07.466Z,99808.34
2023-04-03T14:14:17.455Z,99799.75
2023-04-03T14:17:24.960Z,99819.84
2023-04-03T14:20:29.267Z,99816.38
2023-04-03T14:23:34.114Z,99815.22
2023-04-03T14:26:37.099Z,99808.16
2023-04-03T14:29:40.491Z,99806.47
2023-04-03T14:32:43.741Z,99804.78
2023-04-03T14:35:48.019Z,99800.41
2023-04-03T14:38:51.699Z,99794.06
2023-04-03T14:41:54.950Z,99803.31
2023-04-03T14:44:58.733Z,99809.72
2023-04-03T14:48:02.188Z,99805.22
2023-04-03T14:51:06.215Z,99798.97
2023-04-03T14:54:18.254Z,99794.87
2023-04-03T14:57:23.425Z,99809.53
2023-04-03T15:00:30.436Z,99807.34
2023-04-03T15:03:33.541Z,99797.72
2023-04-03T15:06:37.800Z,99809.13
2023-04-03T15:09:41.099Z,99811.50
2023-04-03T15:12:45.152Z,99812.38
2023-04-03T15:15:48.398Z,99795.37
2023-04-03T15:18:51.693Z,99796.59
2023-04-03T15:21:54.642Z,99811.81
2023-04-03T15:24:57.921Z,99811.09
2023-04-03T15:28:01.153Z,99803.00
2023-04-03T15:31:05.534Z,99817.25
2023-04-03T15:34:08.419Z,99796.50
2023-04-03T15:37:11.682Z,99798.59
2023-04-03T15:40:14.963Z,99809.19
2023-04-03T15:43:18.207Z,99809.41
2023-04-03T15:46:21.372Z,99816.09
2023-04-03T15:49:25.672Z,99813.91
2023-04-03T15:52:28.575Z,99817.63
2023-04-03T15:55:34.781Z,99829.31
2023-04-03T15:58:38.073Z,99825.75
2023-04-03T16:01:41.615Z,99822.81
2023-04-03T16:04:44.818Z,99834.03
2023-04-03T16:07:48.339Z,99838.44
2023-04-03T16:10:51.625Z,99843.06
2023-04-03T16:13:55.438Z,99853.09
2023-04-03T16:17:01.648Z,99853.34
2023-04-03T16:20:05.916Z,99861.78
2023-04-03T16:23:09.194Z,99858.88
2023-04-03T16:26:12.365Z,99861.25
2023-04-03T16:29:15.737Z,99871.31
2023-04-03T16:32:18.775Z,99872.75
2023-04-03T16:35:22.545Z,99872.31
2023-04-03T16:38:25.576Z,99878.66
2023-04-03T16:41:30.326Z,99881.47
2023-04-03T16:44:33.488Z,99878.28
2023-04-03T16:47:37.556Z,99886.59
2023-04-03T16:50:40.996Z,99882.81
2023-04-03T16:53:44.706Z,99884.53
2023-04-03T16:56:48.119Z,99903.28
2023-04-03T16:59:52.268Z,99908.44
2023-04-03T17:02:55.358Z,99905.41
2023-04-03T17:05:59.286Z,99908.91
2023-04-03T17:09:02.900Z,99910.50
2023-04-03T17:12:06.754Z,99917.59
2023-04-03T17:15:10.836Z,99923.50
2023-04-03T17:18:14.304Z,99926.13
2023-04-03T17:21:17.842Z,99933.47
2023-04-03T17:24:21.184Z,99936.59
2023-04-03T17:27:24.190Z,99940.53
2023-04-03T17:30:28.987Z,99942.94
2023-04-03T17:33:32.172Z,99956.91
2023-04-03T17:36:37.784Z,99949.53
2023-04-03T17:39:42.120Z,99950.25
2023-04-03T17:42:45.846Z,99962.41
2023-04-03T17:45:48.871Z,99972.41
2023-04-03T17:48:52.934Z,99983.19
2023-04-03T17:51:56.589Z,99990.81
2023-04-03T17:55:01.504Z,100002.31
2023-04-03T17:58:05.360Z,99998.72
2023-04-03T18:01:30.004Z,100016.09
2023-04-03T18:04:33.914Z,100015.31
2023-04-03T18:07:41.456Z,100013.75
2023-04-03T18:10:45.830Z,100026.75
2023-04-03T18:13:50.114Z,100026.97
2023-04-03T18:17:01.305Z,100023.84
2023-04-03T18:20:06.169Z,100029.44
2023-04-03T18:23:10.528Z,100035.81
2023-04-03T18:26:19.774Z,100050.16
2023-04-03T18:29:25.257Z,100067.06
2023-04-03T18:32:29.450Z,100081.78
2023-04-03T18:35:34.428Z,100091.53
2023-04-03T18:38:38.841Z,100091.16
2023-04-03T18:41:43.714Z,100105.44
2023-04-03T18:44:50.242Z,100104.69
2023-04-03T18:47:55.265Z,100120.34
2023-04-03T18:51:00.416Z,100126.50
2023-04-03T18:54:05.347Z,100141.31
2023-04-03T18:57:10.624Z,100144.53
2023-04-03T19:00:17.823Z,100145.94
2023-04-03T19:03:23.618Z,100151.44
2023-04-03T19:06:30.858Z,100144.84
2023-04-03T19:09:34.982Z,100157.72
2023-04-03T19:12:42.332Z,100156.47
2023-04-03T19:15:53.296Z,100146.44
2023-04-03T19:18:57.387Z,100149.88
2023-04-03T19:22:04.504Z,100150.09
2023-04-03T19:25:13.331Z,100149.03
2023-04-03T19:28:16.776Z,100149.59
2023-04-03T19:31:23.277Z,100153.19
2023-04-03T19:34:28.331Z,100144.66
2023-04-03T19:37:32.994Z,100135.03
2023-04-03T19:40:38.768Z,100143.44
2023-04-03T19:43:43.724Z,100143.72
2023-04-03T19:46:51.196Z,100135.37
2023-04-03T19:49:55.771Z,100143.72
2023-04-03T19:53:03.068Z,100139.50
2023-04-03T19:56:07.348Z,100128.56
2023-04-03T19:59:11.122Z,100123.66
2023-04-03T20:02:16.082Z,100138.47
2023-04-03T20:05:20.969Z,100132.97
2023-04-03T20:08:28.362Z,100138.47
2023-04-03T20:11:36.147Z,100141.94
2023-04-03T20:14:41.230Z,100135.28
2023-04-03T20:17:45.702Z,100133.53
2023-04-03T20:20:57.164Z,100125.53
2023-04-03T20:24:04.704Z,100117.19
2023-04-03T20:27:08.066Z,100117.47
2023-04-03T20:30:13.293Z,100120.03
2023-04-03T20:33:16.468Z,100114.59
2023-04-03T20:36:22.221Z,100117.56
2023-04-03T20:39:26.068Z,100116.31
2023-04-03T20:42:29.955Z,100116.16
2023-04-03T20:45:34.014Z,100111.59
2023-04-03T20:48:37.478Z,100118.13
2023-04-03T20:51:40.434Z,100111.50
2023-04-03T20:54:44.427Z,100111.34
2023-04-03T20:57:54.377Z,100115.63
2023-04-03T21:00:58.041Z,100120.81
2023-04-03T21:04:10.046Z,100109.31
2023-04-03T21:07:51.219Z,100108.53
2023-04-03T21:11:32.786Z,100098.59
2023-04-03T21:15:14.758Z,100106.94
2023-04-03T21:18:39.219Z,100111.97
2023-04-03T21:21:45.916Z,100108.47
2023-04-03T21:24:48.856Z,100114.31
2023-04-03T21:27:52.155Z,100125.34
2023-04-03T21:30:55.145Z,100120.44
2023-04-03T21:33:58.516Z,100117.75
2023-04-03T21:37:06.576Z,100119.16
2023-04-03T21:40:10.036Z,100102.09
2023-04-03T21:43:13.094Z,100104.81
2023-04-03T21:46:16.415Z,100100.34
2023-04-03T21:49:19.768Z,100096.38
2023-04-03T21:52:23.082Z,100094.63
2023-04-03T21:55:26.144Z,100094.94
2023-04-03T21:58:33.136Z,100094.00
2023-04-03T22:01:36.443Z,100086.72
2023-04-03T22:04:39.799Z,100093.66
2023-04-03T22:07:48.907Z,100086.41
2023-04-03T22:10:53.064Z,100090.88
2023-04-03T22:13:57.016Z,100091.25
2023-04-03T22:17:01.793Z,100092.34
2023-04-03T22:20:05.240Z,100088.03
2023-04-03T22:23:09.310Z,100089.25
2023-04-03T22:26:12.898Z,100086.84
2023-04-03T22:29:17.270Z,100080.59
2023-04-03T22:32:20.263Z,100082.88
2023-04-03T22:35:27.552Z,100070.34
2023-04-03T22:38:30.711Z,100067.94
2023-04-03T22:41:34.032Z,100064.37
2023-04-03T22:44:37.002Z,100067.69
2023-04-03T22:47:40.297Z,100060.59
2023-04-03T22:50:43.613Z,100063.78
2023-04-03T22:53:46.931Z,100063.03
2023-04-03T22:56:49.787Z,100056.25
2023-04-03T22:59:52.987Z,100058.28
2023-04-03T23:02:56.694Z,100059.75
2023-04-03T23:06:04.685Z,100061.81
2023-04-03T23:09:07.576Z,100061.91
2023-04-03T23:12:12.203Z,100063.91
2023-04-03T23:15:15.488Z,100068.06
2023-04-03T23:18:19.730Z,100068.19
2023-04-03T23:21:23.207Z,100073.44
2023-04-03T23:24:26.653Z,100070.78
2023-04-03T23:27:29.658Z,100076.12
2023-04-03T23:30:33.640Z,100071.75
2023-04-03T23:33:44.011Z,100071.56
2023-04-03T23:36:47.342Z,100069.31
2023-04-03T23:39:50.281Z,100074.16
2023-04-03T23:42:53.437Z,100068.31
2023-04-03T23:45:56.552Z,100076.22
2023-04-03T23:48:59.859Z,100074.72
2023-04-03T23:52:03.019Z,100076.81
2023-04-03T23:55:07.467Z,100073.94
2023-04-03T23:58:13.299Z,100073.34
